Main page
METAR-TAF:

METAR-TAF

Airports :

Inverness Airport

Inverness, Scotland

latitude: 57-32N, longitude: 004-03W, elevation: 9 m

Current weather observation

The report was made 41 minutes ago, at 22:20 UTC
Wind 3 kt from the North/Northeast
Temperature 1°C
Humidity 100%
Pressure 1005 hPa
Visibility 10 km or more

METAR: EGPE 212220Z AUTO 03003KT 9999 SCT046/// 01/01 Q1005

Time: 23:01 (23:01 UTC)

Forecast

The report was made 3 hours and 7 minutes ago, at 19:54 UTC
Forecast valid from 21 at 21 UTC to 22 at 06 UTC
Wind 6 kt from the East/Northeast
Visibility 10 km or more
Few clouds at a height of 4000 ft

TAF: EGPE 211954Z 2121/2206 07006KT 9999 FEW040

Weather observations and forecasts of more than 4000 airports (METAR and TAF reports).

The available stations are represented by yellow and red dots on the map.

Hover mouse over dot to see the name of the station.

Then click to see weather observations and forecasts.

To change the map : click on the green buttons with a black cross to zoom in, on the green button with a dash to zoom out, or on the green arrows for adjacent maps.


METAR-TAF: